sensor_id;sensor_type;location;lat;lon;timestamp;pressure;altitude;pressure_sealevel;temperature;humidity
6349;BME280;3207;42.648;23.406;2023-07-20T00:00:05;99606.50;;;25.00;nan
6349;BME280;3207;42.648;23.406;2023-07-20T00:02:32;99618.47;;;24.98;nan
6349;BME280;3207;42.648;23.406;2023-07-20T00:05:01;99609.63;;;24.97;nan
6349;BME280;3207;42.648;23.406;2023-07-20T00:07:27;99608.81;;;24.97;nan
6349;BME280;3207;42.648;23.406;2023-07-20T00:09:54;99601.19;;;24.94;nan
6349;BME280;3207;42.648;23.406;2023-07-20T00:12:21;99585.97;;;24.94;nan
6349;BME280;3207;42.648;23.406;2023-07-20T00:14:48;99572.38;;;24.96;nan
6349;BME280;3207;42.648;23.406;2023-07-20T00:17:14;99571.78;;;24.94;nan
6349;BME280;3207;42.648;23.406;2023-07-20T00:19:41;99583.50;;;24.93;nan
6349;BME280;3207;42.648;23.406;2023-07-20T00:22:09;99606.34;;;24.89;nan
6349;BME280;3207;42.648;23.406;2023-07-20T00:24:36;99587.63;;;24.89;nan
6349;BME280;3207;42.648;23.406;2023-07-20T00:27:03;99581.47;;;24.81;nan
6349;BME280;3207;42.648;23.406;2023-07-20T00:29:30;99586.69;;;24.70;nan
6349;BME280;3207;42.648;23.406;2023-07-20T00:31:58;99583.25;;;24.56;nan
6349;BME280;3207;42.648;23.406;2023-07-20T00:34:25;99605.84;;;24.60;nan
6349;BME280;3207;42.648;23.406;2023-07-20T00:36:51;99623.56;;;24.55;nan
6349;BME280;3207;42.648;23.406;2023-07-20T00:39:19;99620.84;;;24.61;nan
6349;BME280;3207;42.648;23.406;2023-07-20T00:41:46;99607.91;;;24.65;nan
6349;BME280;3207;42.648;23.406;2023-07-20T00:44:13;99593.09;;;24.62;nan
6349;BME280;3207;42.648;23.406;2023-07-20T00:46:40;99579.19;;;24.47;nan
6349;BME280;3207;42.648;23.406;2023-07-20T00:49:09;99585.38;;;24.41;nan
6349;BME280;3207;42.648;23.406;2023-07-20T00:51:36;99576.75;;;24.39;nan
6349;BME280;3207;42.648;23.406;2023-07-20T00:54:03;99566.25;;;24.37;nan
6349;BME280;3207;42.648;23.406;2023-07-20T00:56:32;99566.06;;;24.39;nan
6349;BME280;3207;42.648;23.406;2023-07-20T00:58:59;99558.91;;;24.33;nan
6349;BME280;3207;42.648;23.406;2023-07-20T01:01:25;99549.41;;;24.37;nan
6349;BME280;3207;42.648;23.406;2023-07-20T01:03:52;99539.31;;;24.39;nan
6349;BME280;3207;42.648;23.406;2023-07-20T01:06:26;99518.81;;;24.33;nan
6349;BME280;3207;42.648;23.406;2023-07-20T01:09:02;99517.59;;;24.16;nan
6349;BME280;3207;42.648;23.406;2023-07-20T01:11:37;99506.16;;;24.02;nan
6349;BME280;3207;42.648;23.406;2023-07-20T01:14:05;99501.06;;;23.87;nan
6349;BME280;3207;42.648;23.406;2023-07-20T01:16:33;99508.03;;;23.88;nan
6349;BME280;3207;42.648;23.406;2023-07-20T01:18:59;99508.69;;;23.84;nan
6349;BME280;3207;42.648;23.406;2023-07-20T01:21:32;99494.13;;;23.73;nan
6349;BME280;3207;42.648;23.406;2023-07-20T01:24:38;99489.22;;;23.63;nan
6349;BME280;3207;42.648;23.406;2023-07-20T01:27:43;99489.63;;;23.67;nan
6349;BME280;3207;42.648;23.406;2023-07-20T01:30:51;99492.69;;;23.64;nan
6349;BME280;3207;42.648;23.406;2023-07-20T01:33:24;99477.94;;;23.61;nan
6349;BME280;3207;42.648;23.406;2023-07-20T01:35:54;99479.78;;;23.61;nan
6349;BME280;3207;42.648;23.406;2023-07-20T01:38:23;99478.31;;;23.65;nan
6349;BME280;3207;42.648;23.406;2023-07-20T01:40:50;99465.22;;;23.57;nan
6349;BME280;3207;42.648;23.406;2023-07-20T01:43:18;99462.31;;;23.45;nan
6349;BME280;3207;42.648;23.406;2023-07-20T01:45:45;99475.47;;;23.47;nan
6349;BME280;3207;42.648;23.406;2023-07-20T01:48:11;99479.16;;;23.46;nan
6349;BME280;3207;42.648;23.406;2023-07-20T01:50:40;99487.59;;;23.56;nan
6349;BME280;3207;42.648;23.406;2023-07-20T01:53:06;99500.13;;;23.62;nan
6349;BME280;3207;42.648;23.406;2023-07-20T01:55:33;99495.97;;;23.66;nan
6349;BME280;3207;42.648;23.406;2023-07-20T01:58:00;99504.81;;;23.73;nan
6349;BME280;3207;42.648;23.406;2023-07-20T02:00:27;99503.34;;;23.77;nan
6349;BME280;3207;42.648;23.406;2023-07-20T02:02:54;99515.66;;;23.85;nan
6349;BME280;3207;42.648;23.406;2023-07-20T02:05:21;99523.03;;;23.89;nan
6349;BME280;3207;42.648;23.406;2023-07-20T02:07:49;99525.69;;;23.96;nan
6349;BME280;3207;42.648;23.406;2023-07-20T02:10:16;99518.69;;;24.01;nan
6349;BME280;3207;42.648;23.406;2023-07-20T02:12:42;99512.72;;;24.06;nan
6349;BME280;3207;42.648;23.406;2023-07-20T02:15:10;99506.13;;;24.08;nan
6349;BME280;3207;42.648;23.406;2023-07-20T02:17:38;99510.25;;;24.11;nan
6349;BME280;3207;42.648;23.406;2023-07-20T02:20:07;99504.47;;;24.14;nan
6349;BME280;3207;42.648;23.406;2023-07-20T02:22:35;99501.56;;;24.16;nan
6349;BME280;3207;42.648;23.406;2023-07-20T02:25:04;99492.78;;;24.08;nan
6349;BME280;3207;42.648;23.406;2023-07-20T02:27:31;99493.81;;;24.07;nan
6349;BME280;3207;42.648;23.406;2023-07-20T02:29:58;99505.75;;;23.98;nan
6349;BME280;3207;42.648;23.406;2023-07-20T02:32:25;99508.66;;;23.90;nan
6349;BME280;3207;42.648;23.406;2023-07-20T02:34:52;99507.03;;;23.76;nan
6349;BME280;3207;42.648;23.406;2023-07-20T02:37:18;99505.84;;;23.65;nan
6349;BME280;3207;42.648;23.406;2023-07-20T02:39:45;99503.59;;;23.62;nan
6349;BME280;3207;42.648;23.406;2023-07-20T02:42:13;99509.16;;;23.61;nan
6349;BME280;3207;42.648;23.406;2023-07-20T02:44:40;99503.41;;;23.57;nan
6349;BME280;3207;42.648;23.406;2023-07-20T02:47:07;99505.66;;;23.41;nan
6349;BME280;3207;42.648;23.406;2023-07-20T02:49:34;99504.22;;;23.38;nan
6349;BME280;3207;42.648;23.406;2023-07-20T02:52:01;99508.72;;;23.44;nan
6349;BME280;3207;42.648;23.406;2023-07-20T02:54:28;99510.56;;;23.44;nan
6349;BME280;3207;42.648;23.406;2023-07-20T02:56:55;99521.28;;;23.50;nan
6349;BME280;3207;42.648;23.406;2023-07-20T02:59:23;99528.63;;;23.55;nan
6349;BME280;3207;42.648;23.406;2023-07-20T03:01:55;99540.78;;;23.51;nan
6349;BME280;3207;42.648;23.406;2023-07-20T03:04:23;99547.53;;;23.53;nan
6349;BME280;3207;42.648;23.406;2023-07-20T03:06:50;99547.53;;;23.53;nan
6349;BME280;3207;42.648;23.406;2023-07-20T03:09:17;99552.25;;;23.58;nan
6349;BME280;3207;42.648;23.406;2023-07-20T03:11:43;99557.19;;;23.54;nan
6349;BME280;3207;42.648;23.406;2023-07-20T03:14:10;99567.47;;;23.51;nan
6349;BME280;3207;42.648;23.406;2023-07-20T03:16:38;99569.50;;;23.55;nan
6349;BME280;3207;42.648;23.406;2023-07-20T03:19:05;99568.28;;;23.58;nan
6349;BME280;3207;42.648;23.406;2023-07-20T03:21:32;99572.38;;;23.60;nan
6349;BME280;3207;42.648;23.406;2023-07-20T03:23:58;99574.41;;;23.65;nan
6349;BME280;3207;42.648;23.406;2023-07-20T03:26:25;99587.97;;;23.70;nan
6349;BME280;3207;42.648;23.406;2023-07-20T03:28:52;99558.00;;;23.55;nan
6349;BME280;3207;42.648;23.406;2023-07-20T03:31:19;99580.16;;;23.75;nan
6349;BME280;3207;42.648;23.406;2023-07-20T03:33:47;99575.44;;;23.77;nan
6349;BME280;3207;42.648;23.406;2023-07-20T03:36:14;99580.16;;;23.75;nan
6349;BME280;3207;42.648;23.406;2023-07-20T03:38:40;99585.09;;;23.78;nan
6349;BME280;3207;42.648;23.406;2023-07-20T03:41:07;99579.13;;;23.83;nan
6349;BME280;3207;42.648;23.406;2023-07-20T03:43:34;99577.28;;;23.83;nan
6349;BME280;3207;42.648;23.406;2023-07-20T03:46:01;99586.91;;;23.84;nan
6349;BME280;3207;42.648;23.406;2023-07-20T03:48:32;99595.75;;;23.85;nan
6349;BME280;3207;42.648;23.406;2023-07-20T03:51:00;99595.53;;;23.86;nan
6349;BME280;3207;42.648;23.406;2023-07-20T03:53:27;99586.31;;;23.89;nan
6349;BME280;3207;42.648;23.406;2023-07-20T03:55:54;99573.94;;;23.94;nan
6349;BME280;3207;42.648;23.406;2023-07-20T03:58:21;99577.25;;;23.96;nan
6349;BME280;3207;42.648;23.406;2023-07-20T04:00:50;99587.31;;;24.01;nan
6349;BME280;3207;42.648;23.406;2023-07-20T04:03:17;99598.19;;;24.06;nan
6349;BME280;3207;42.648;23.406;2023-07-20T04:05:44;99594.09;;;24.03;nan
6349;BME280;3207;42.648;23.406;2023-07-20T04:08:13;99590.81;;;24.01;nan
6349;BME280;3207;42.648;23.406;2023-07-20T04:10:43;99602.69;;;24.05;nan
6349;BME280;3207;42.648;23.406;2023-07-20T04:13:10;99598.19;;;24.06;nan
6349;BME280;3207;42.648;23.406;2023-07-20T04:15:37;99594.47;;;24.07;nan
6349;BME280;3207;42.648;23.406;2023-07-20T04:18:03;99596.94;;;24.08;nan
6349;BME280;3207;42.648;23.406;2023-07-20T04:20:30;99597.16;;;24.07;nan
6349;BME280;3207;42.648;23.406;2023-07-20T04:22:57;99614.63;;;24.09;nan
6349;BME280;3207;42.648;23.406;2023-07-20T04:25:25;99613.81;;;24.02;nan
6349;BME280;3207;42.648;23.406;2023-07-20T04:27:52;99623.03;;;24.06;nan
6349;BME280;3207;42.648;23.406;2023-07-20T04:30:19;99627.34;;;24.07;nan
6349;BME280;3207;42.648;23.406;2023-07-20T04:32:47;99631.03;;;24.06;nan
6349;BME280;3207;42.648;23.406;2023-07-20T04:35:17;99625.91;;;24.12;nan
6349;BME280;3207;42.648;23.406;2023-07-20T04:37:44;99625.50;;;24.15;nan
6349;BME280;3207;42.648;23.406;2023-07-20T04:40:12;99625.88;;;24.18;nan
6349;BME280;3207;42.648;23.406;2023-07-20T04:42:40;99625.88;;;24.18;nan
6349;BME280;3207;42.648;23.406;2023-07-20T04:45:08;99636.00;;;24.23;nan
6349;BME280;3207;42.648;23.406;2023-07-20T04:47:35;99628.34;;;24.20;nan
6349;BME280;3207;42.648;23.406;2023-07-20T04:50:02;99631.84;;;24.27;nan
6349;BME280;3207;42.648;23.406;2023-07-20T04:52:29;99636.63;;;24.25;nan
6349;BME280;3207;42.648;23.406;2023-07-20T04:54:56;99634.72;;;24.32;nan
6349;BME280;3207;42.648;23.406;2023-07-20T04:57:24;99635.13;;;24.42;nan
6349;BME280;3207;42.648;23.406;2023-07-20T04:59:52;99636.94;;;24.55;nan
6349;BME280;3207;42.648;23.406;2023-07-20T05:02:19;99640.19;;;24.63;nan
6349;BME280;3207;42.648;23.406;2023-07-20T05:04:45;99639.72;;;24.73;nan
6349;BME280;3207;42.648;23.406;2023-07-20T05:07:12;99634.53;;;24.85;nan
6349;BME280;3207;42.648;23.406;2023-07-20T05:09:39;99639.03;;;24.97;nan
6349;BME280;3207;42.648;23.406;2023-07-20T05:12:06;99634.47;;;25.04;nan
6349;BME280;3207;42.648;23.406;2023-07-20T05:14:33;99632.56;;;25.11;nan
6349;BME280;3207;42.648;23.406;2023-07-20T05:17:01;99631.50;;;25.19;nan
6349;BME280;3207;42.648;23.406;2023-07-20T05:19:28;99638.25;;;25.22;nan
6349;BME280;3207;42.648;23.406;2023-07-20T05:21:55;99630.63;;;25.25;nan
6349;BME280;3207;42.648;23.406;2023-07-20T05:24:22;99630.00;;;25.30;nan
6349;BME280;3207;42.648;23.406;2023-07-20T05:26:49;99639.00;;;25.35;nan
6349;BME280;3207;42.648;23.406;2023-07-20T05:29:16;99644.53;;;25.40;nan
6349;BME280;3207;42.648;23.406;2023-07-20T05:31:42;99644.69;;;25.45;nan
6349;BME280;3207;42.648;23.406;2023-07-20T05:34:11;99639.53;;;25.50;nan
6349;BME280;3207;42.648;23.406;2023-07-20T05:37:08;99639.69;;;25.56;nan
6349;BME280;3207;42.648;23.406;2023-07-20T05:39:35;99641.53;;;25.62;nan
6349;BME280;3207;42.648;23.406;2023-07-20T05:42:02;99639.84;;;25.67;nan
6349;BME280;3207;42.648;23.406;2023-07-20T05:44:29;99643.50;;;25.73;nan
6349;BME280;3207;42.648;23.406;2023-07-20T05:46:56;99626.97;;;25.76;nan
6349;BME280;3207;42.648;23.406;2023-07-20T05:49:24;99631.91;;;25.79;nan
6349;BME280;3207;42.648;23.406;2023-07-20T05:51:51;99629.63;;;25.82;nan
6349;BME280;3207;42.648;23.406;2023-07-20T05:54:18;99625.91;;;25.83;nan
6349;BME280;3207;42.648;23.406;2023-07-20T05:56:45;99626.88;;;25.89;nan
6349;BME280;3207;42.648;23.406;2023-07-20T05:59:13;99637.56;;;25.96;nan
6349;BME280;3207;42.648;23.406;2023-07-20T06:01:40;99621.63;;;26.01;nan
6349;BME280;3207;42.648;23.406;2023-07-20T06:04:07;99630.41;;;26.08;nan
6349;BME280;3207;42.648;23.406;2023-07-20T06:06:35;99639.44;;;26.13;nan
6349;BME280;3207;42.648;23.406;2023-07-20T06:09:02;99623.28;;;26.20;nan
6349;BME280;3207;42.648;23.406;2023-07-20T06:11:29;99641.00;;;26.21;nan
6349;BME280;3207;42.648;23.406;2023-07-20T06:13:57;99634.31;;;26.30;nan
6349;BME280;3207;42.648;23.406;2023-07-20T06:16:23;99640.47;;;26.37;nan
6349;BME280;3207;42.648;23.406;2023-07-20T06:18:50;99627.78;;;26.44;nan
6349;BME280;3207;42.648;23.406;2023-07-20T06:21:17;99627.69;;;26.51;nan
6349;BME280;3207;42.648;23.406;2023-07-20T06:23:45;99629.28;;;26.58;nan
6349;BME280;3207;42.648;23.406;2023-07-20T06:26:12;99630.22;;;26.64;nan
6349;BME280;3207;42.648;23.406;2023-07-20T06:28:38;99631.44;;;26.68;nan
6349;BME280;3207;42.648;23.406;2023-07-20T06:31:05;99634.03;;;26.75;nan
6349;BME280;3207;42.648;23.406;2023-07-20T06:33:32;99639.88;;;26.83;nan
6349;BME280;3207;42.648;23.406;2023-07-20T06:36:00;99636.31;;;26.89;nan
6349;BME280;3207;42.648;23.406;2023-07-20T06:38:26;99649.22;;;26.99;nan
6349;BME280;3207;42.648;23.406;2023-07-20T06:40:56;99637.19;;;27.02;nan
6349;BME280;3207;42.648;23.406;2023-07-20T06:43:22;99644.72;;;27.11;nan
6349;BME280;3207;42.648;23.406;2023-07-20T06:45:51;99641.94;;;27.18;nan
6349;BME280;3207;42.648;23.406;2023-07-20T06:48:19;99640.56;;;27.27;nan
6349;BME280;3207;42.648;23.406;2023-07-20T06:50:45;99643.72;;;27.36;nan
6349;BME280;3207;42.648;23.406;2023-07-20T06:53:12;99638.63;;;27.46;nan
6349;BME280;3207;42.648;23.406;2023-07-20T06:55:41;99643.69;;;27.54;nan
6349;BME280;3207;42.648;23.406;2023-07-20T06:58:10;99638.09;;;27.67;nan
6349;BME280;3207;42.648;23.406;2023-07-20T07:00:38;99644.53;;;27.78;nan
6349;BME280;3207;42.648;23.406;2023-07-20T07:03:04;99640.00;;;27.90;nan
6349;BME280;3207;42.648;23.406;2023-07-20T07:05:35;99628.66;;;27.99;nan
6349;BME280;3207;42.648;23.406;2023-07-20T07:08:02;99637.19;;;28.08;nan
6349;BME280;3207;42.648;23.406;2023-07-20T07:10:29;99640.34;;;28.17;nan
6349;BME280;3207;42.648;23.406;2023-07-20T07:12:56;99645.16;;;28.26;nan
6349;BME280;3207;42.648;23.406;2023-07-20T07:15:24;99650.84;;;28.41;nan
6349;BME280;3207;42.648;23.406;2023-07-20T07:17:51;99657.03;;;28.54;nan
6349;BME280;3207;42.648;23.406;2023-07-20T07:20:18;99648.25;;;28.70;nan
6349;BME280;3207;42.648;23.406;2023-07-20T07:22:45;99656.06;;;28.83;nan
6349;BME280;3207;42.648;23.406;2023-07-20T07:25:12;99662.09;;;29.02;nan
6349;BME280;3207;42.648;23.406;2023-07-20T07:27:39;99660.97;;;29.14;nan
6349;BME280;3207;42.648;23.406;2023-07-20T07:30:07;99659.03;;;29.27;nan
6349;BME280;3207;42.648;23.406;2023-07-20T07:32:35;99659.13;;;29.43;nan
6349;BME280;3207;42.648;23.406;2023-07-20T07:35:02;99653.16;;;29.58;nan
6349;BME280;3207;42.648;23.406;2023-07-20T07:37:29;99647.53;;;29.76;nan
6349;BME280;3207;42.648;23.406;2023-07-20T07:39:57;99646.38;;;29.89;nan
6349;BME280;3207;42.648;23.406;2023-07-20T07:42:24;99649.66;;;30.08;nan
6349;BME280;3207;42.648;23.406;2023-07-20T07:44:50;99659.09;;;30.27;nan
6349;BME280;3207;42.648;23.406;2023-07-20T07:47:17;99662.25;;;30.41;nan
6349;BME280;3207;42.648;23.406;2023-07-20T07:49:45;99661.09;;;30.53;nan
6349;BME280;3207;42.648;23.406;2023-07-20T07:52:12;99661.28;;;30.30;nan
6349;BME280;3207;42.648;23.406;2023-07-20T07:54:39;99655.53;;;30.60;nan
6349;BME280;3207;42.648;23.406;2023-07-20T07:57:06;99664.13;;;30.79;nan
6349;BME280;3207;42.648;23.406;2023-07-20T07:59:33;99658.69;;;31.22;nan
6349;BME280;3207;42.648;23.406;2023-07-20T08:02:02;99658.16;;;31.25;nan
6349;BME280;3207;42.648;23.406;2023-07-20T08:04:29;99648.31;;;31.68;nan
6349;BME280;3207;42.648;23.406;2023-07-20T08:06:57;99645.91;;;31.72;nan
6349;BME280;3207;42.648;23.406;2023-07-20T08:09:24;99644.97;;;31.61;nan
6349;BME280;3207;42.648;23.406;2023-07-20T08:11:51;99642.47;;;31.22;nan
6349;BME280;3207;42.648;23.406;2023-07-20T08:14:18;99647.09;;;31.54;nan
6349;BME280;3207;42.648;23.406;2023-07-20T08:16:45;99650.63;;;31.86;nan
6349;BME280;3207;42.648;23.406;2023-07-20T08:19:12;99646.13;;;32.02;nan
6349;BME280;3207;42.648;23.406;2023-07-20T08:21:39;99647.19;;;32.01;nan
6349;BME280;3207;42.648;23.406;2023-07-20T08:24:07;99647.38;;;31.89;nan
6349;BME280;3207;42.648;23.406;2023-07-20T08:26:34;99651.44;;;31.87;nan
6349;BME280;3207;42.648;23.406;2023-07-20T08:29:01;99650.38;;;31.61;nan
6349;BME280;3207;42.648;23.406;2023-07-20T08:31:28;99644.34;;;31.81;nan
6349;BME280;3207;42.648;23.406;2023-07-20T08:33:55;99650.06;;;31.57;nan
6349;BME280;3207;42.648;23.406;2023-07-20T08:36:22;99646.22;;;31.75;nan
6349;BME280;3207;42.648;23.406;2023-07-20T08:38:49;99642.38;;;31.71;nan
6349;BME280;3207;42.648;23.406;2023-07-20T08:41:18;99638.59;;;31.67;nan
6349;BME280;3207;42.648;23.406;2023-07-20T08:43:46;99630.97;;;31.37;nan
6349;BME280;3207;42.648;23.406;2023-07-20T08:46:13;99631.56;;;31.12;nan
6349;BME280;3207;42.648;23.406;2023-07-20T08:48:42;99637.22;;;31.11;nan
6349;BME280;3207;42.648;23.406;2023-07-20T08:51:10;99628.00;;;31.34;nan
6349;BME280;3207;42.648;23.406;2023-07-20T08:53:38;99628.44;;;31.52;nan
6349;BME280;3207;42.648;23.406;2023-07-20T08:56:06;99624.81;;;31.42;nan
6349;BME280;3207;42.648;23.406;2023-07-20T08:58:37;99628.28;;;31.64;nan
6349;BME280;3207;42.648;23.406;2023-07-20T09:01:06;99627.66;;;31.25;nan
6349;BME280;3207;42.648;23.406;2023-07-20T09:03:33;99624.72;;;31.32;nan
6349;BME280;3207;42.648;23.406;2023-07-20T09:06:00;99617.69;;;31.04;nan
6349;BME280;3207;42.648;23.406;2023-07-20T09:08:27;99618.94;;;31.18;nan
6349;BME280;3207;42.648;23.406;2023-07-20T09:10:53;99620.16;;;31.37;nan
6349;BME280;3207;42.648;23.406;2023-07-20T09:13:20;99617.44;;;31.32;nan
6349;BME280;3207;42.648;23.406;2023-07-20T09:15:53;99619.44;;;31.79;nan
6349;BME280;3207;42.648;23.406;2023-07-20T09:18:29;99622.84;;;31.96;nan
6349;BME280;3207;42.648;23.406;2023-07-20T09:20:58;99614.72;;;31.96;nan
6349;BME280;3207;42.648;23.406;2023-07-20T09:23:30;99622.72;;;32.18;nan
6349;BME280;3207;42.648;23.406;2023-07-20T09:25:57;99619.25;;;32.32;nan
6349;BME280;3207;42.648;23.406;2023-07-20T09:28:24;99622.88;;;32.48;nan
6349;BME280;3207;42.648;23.406;2023-07-20T09:30:54;99624.34;;;32.76;nan
6349;BME280;3207;42.648;23.406;2023-07-20T09:33:21;99625.06;;;32.56;nan
6349;BME280;3207;42.648;23.406;2023-07-20T09:35:48;99627.22;;;32.54;nan
6349;BME280;3207;42.648;23.406;2023-07-20T09:38:15;99617.97;;;32.40;nan
6349;BME280;3207;42.648;23.406;2023-07-20T09:40:42;99618.69;;;32.25;nan
6349;BME280;3207;42.648;23.406;2023-07-20T09:43:09;99614.16;;;31.94;nan
6349;BME280;3207;42.648;23.406;2023-07-20T09:45:39;99617.25;;;32.13;nan
6349;BME280;3207;42.648;23.406;2023-07-20T09:48:09;99614.09;;;32.26;nan
6349;BME280;3207;42.648;23.406;2023-07-20T09:50:40;99615.44;;;32.23;nan
6349;BME280;3207;42.648;23.406;2023-07-20T09:53:11;99607.78;;;32.15;nan
6349;BME280;3207;42.648;23.406;2023-07-20T09:55:40;99597.88;;;32.26;nan
6349;BME280;3207;42.648;23.406;2023-07-20T09:58:08;99599.84;;;32.41;nan
6349;BME280;3207;42.648;23.406;2023-07-20T10:00:36;99605.44;;;32.24;nan
6349;BME280;3207;42.648;23.406;2023-07-20T10:03:04;99608.75;;;32.36;nan
6349;BME280;3207;42.648;23.406;2023-07-20T10:05:35;99595.25;;;32.46;nan
6349;BME280;3207;42.648;23.406;2023-07-20T10:08:03;99601.81;;;32.65;nan
6349;BME280;3207;42.648;23.406;2023-07-20T10:10:35;99598.66;;;32.84;nan
6349;BME280;3207;42.648;23.406;2023-07-20T10:13:03;99596.44;;;32.70;nan
6349;BME280;3207;42.648;23.406;2023-07-20T10:15:34;99600.47;;;32.68;nan
6349;BME280;3207;42.648;23.406;2023-07-20T10:18:07;99610.56;;;32.88;nan
6349;BME280;3207;42.648;23.406;2023-07-20T10:20:39;99601.41;;;33.04;nan
6349;BME280;3207;42.648;23.406;2023-07-20T10:23:07;99603.28;;;32.93;nan
6349;BME280;3207;42.648;23.406;2023-07-20T10:25:34;99593.22;;;32.74;nan
6349;BME280;3207;42.648;23.406;2023-07-20T10:28:04;99593.75;;;32.70;nan
6349;BME280;3207;42.648;23.406;2023-07-20T10:30:32;99597.31;;;32.96;nan
6349;BME280;3207;42.648;23.406;2023-07-20T10:33:00;99601.09;;;32.95;nan
6349;BME280;3207;42.648;23.406;2023-07-20T10:35:29;99603.28;;;32.98;nan
6349;BME280;3207;42.648;23.406;2023-07-20T10:38:01;99603.00;;;33.00;nan
6349;BME280;3207;42.648;23.406;2023-07-20T10:40:31;99608.97;;;33.02;nan
6349;BME280;3207;42.648;23.406;2023-07-20T10:42:59;99602.72;;;32.96;nan
6349;BME280;3207;42.648;23.406;2023-07-20T10:45:37;99602.47;;;33.03;nan
6349;BME280;3207;42.648;23.406;2023-07-20T10:48:06;99604.34;;;32.87;nan
6349;BME280;3207;42.648;23.406;2023-07-20T10:50:40;99601.88;;;32.86;nan
6349;BME280;3207;42.648;23.406;2023-07-20T10:53:12;99601.28;;;32.68;nan
6349;BME280;3207;42.648;23.406;2023-07-20T10:55:40;99602.00;;;32.44;nan
6349;BME280;3207;42.648;23.406;2023-07-20T10:58:11;99598.94;;;32.20;nan
6349;BME280;3207;42.648;23.406;2023-07-20T11:00:55;99585.72;;;32.28;nan
6349;BME280;3207;42.648;23.406;2023-07-20T11:03:29;99591.94;;;32.29;nan
6349;BME280;3207;42.648;23.406;2023-07-20T11:05:57;99593.28;;;32.26;nan
6349;BME280;3207;42.648;23.406;2023-07-20T11:08:40;99588.19;;;32.40;nan
6349;BME280;3207;42.648;23.406;2023-07-20T11:11:24;99585.97;;;32.32;nan
6349;BME280;3207;42.648;23.406;2023-07-20T11:13:56;99564.72;;;32.61;nan
6349;BME280;3207;42.648;23.406;2023-07-20T11:16:55;99581.75;;;32.51;nan
6349;BME280;3207;42.648;23.406;2023-07-20T11:19:23;99584.34;;;32.26;nan
6349;BME280;3207;42.648;23.406;2023-07-20T11:21:51;99582.13;;;32.18;nan
6349;BME280;3207;42.648;23.406;2023-07-20T11:24:20;99566.53;;;32.40;nan
6349;BME280;3207;42.648;23.406;2023-07-20T11:26:48;99570.09;;;32.56;nan
6349;BME280;3207;42.648;23.406;2023-07-20T11:29:16;99575.22;;;32.47;nan
6349;BME280;3207;42.648;23.406;2023-07-20T11:31:48;99573.63;;;32.56;nan
6349;BME280;3207;42.648;23.406;2023-07-20T11:34:16;99572.28;;;32.59;nan
6349;BME280;3207;42.648;23.406;2023-07-20T11:36:44;99567.38;;;32.46;nan
6349;BME280;3207;42.648;23.406;2023-07-20T11:39:12;99568.13;;;32.36;nan
6349;BME280;3207;42.648;23.406;2023-07-20T11:41:44;99567.09;;;32.47;nan
6349;BME280;3207;42.648;23.406;2023-07-20T11:44:11;99567.16;;;32.67;nan
6349;BME280;3207;42.648;23.406;2023-07-20T11:46:41;99560.16;;;32.71;nan
6349;BME280;3207;42.648;23.406;2023-07-20T11:49:08;99558.03;;;32.99;nan
6349;BME280;3207;42.648;23.406;2023-07-20T11:51:36;99553.13;;;32.86;nan
6349;BME280;3207;42.648;23.406;2023-07-20T11:54:04;99557.47;;;32.71;nan
6349;BME280;3207;42.648;23.406;2023-07-20T11:56:32;99553.53;;;32.42;nan
6349;BME280;3207;42.648;23.406;2023-07-20T11:59:00;99550.88;;;32.57;nan
6349;BME280;3207;42.648;23.406;2023-07-20T12:01:29;99548.47;;;32.66;nan
6349;BME280;3207;42.648;23.406;2023-07-20T12:03:57;99556.38;;;32.72;nan
6349;BME280;3207;42.648;23.406;2023-07-20T12:06:25;99546.56;;;32.61;nan
6349;BME280;3207;42.648;23.406;2023-07-20T12:08:57;99546.63;;;32.87;nan
6349;BME280;3207;42.648;23.406;2023-07-20T12:11:31;99543.41;;;32.95;nan
6349;BME280;3207;42.648;23.406;2023-07-20T12:14:00;99540.16;;;33.08;nan
6349;BME280;3207;42.648;23.406;2023-07-20T12:16:28;99548.06;;;33.35;nan
6349;BME280;3207;42.648;23.406;2023-07-20T12:18:59;99549.69;;;33.31;nan
6349;BME280;3207;42.648;23.406;2023-07-20T12:21:28;99540.41;;;33.06;nan
6349;BME280;3207;42.648;23.406;2023-07-20T12:23:56;99552.09;;;33.42;nan
6349;BME280;3207;42.648;23.406;2023-07-20T12:26:23;99509.31;;;33.24;nan
6349;BME280;3207;42.648;23.406;2023-07-20T12:28:51;99537.16;;;33.65;nan
6349;BME280;3207;42.648;23.406;2023-07-20T12:31:19;99525.47;;;33.80;nan
6349;BME280;3207;42.648;23.406;2023-07-20T12:33:46;99525.78;;;33.63;nan
6349;BME280;3207;42.648;23.406;2023-07-20T12:36:13;99531.16;;;33.94;nan
6349;BME280;3207;42.648;23.406;2023-07-20T12:38:40;99530.13;;;33.79;nan
6349;BME280;3207;42.648;23.406;2023-07-20T12:41:10;99524.41;;;33.71;nan
6349;BME280;3207;42.648;23.406;2023-07-20T12:43:38;99523.56;;;33.91;nan
6349;BME280;3207;42.648;23.406;2023-07-20T12:46:05;99524.31;;;34.01;nan
6349;BME280;3207;42.648;23.406;2023-07-20T12:48:34;99521.28;;;34.18;nan
6349;BME280;3207;42.648;23.406;2023-07-20T12:51:02;99525.91;;;34.17;nan
6349;BME280;3207;42.648;23.406;2023-07-20T12:53:31;99531.28;;;34.33;nan
6349;BME280;3207;42.648;23.406;2023-07-20T12:55:58;99525.47;;;33.85;nan
6349;BME280;3207;42.648;23.406;2023-07-20T12:58:25;99511.91;;;33.90;nan
6349;BME280;3207;42.648;23.406;2023-07-20T13:00:52;99517.75;;;34.17;nan
6349;BME280;3207;42.648;23.406;2023-07-20T13:03:19;99512.94;;;34.04;nan
6349;BME280;3207;42.648;23.406;2023-07-20T13:05:47;99508.66;;;33.83;nan
6349;BME280;3207;42.648;23.406;2023-07-20T13:08:14;99508.16;;;33.76;nan
6349;BME280;3207;42.648;23.406;2023-07-20T13:10:42;99513.03;;;33.59;nan
6349;BME280;3207;42.648;23.406;2023-07-20T13:13:09;99508.19;;;33.56;nan
6349;BME280;3207;42.648;23.406;2023-07-20T13:15:41;99510.31;;;33.69;nan
6349;BME280;3207;42.648;23.406;2023-07-20T13:18:08;99514.19;;;33.32;nan
6349;BME280;3207;42.648;23.406;2023-07-20T13:20:35;99511.44;;;33.42;nan
6349;BME280;3207;42.648;23.406;2023-07-20T13:23:04;99509.81;;;33.06;nan
6349;BME280;3207;42.648;23.406;2023-07-20T13:25:31;99506.56;;;32.79;nan
6349;BME280;3207;42.648;23.406;2023-07-20T13:27:58;99512.22;;;32.77;nan
6349;BME280;3207;42.648;23.406;2023-07-20T13:30:24;99502.78;;;32.90;nan
6349;BME280;3207;42.648;23.406;2023-07-20T13:32:51;99508.72;;;32.87;nan
6349;BME280;3207;42.648;23.406;2023-07-20T13:35:18;99510.34;;;32.83;nan
6349;BME280;3207;42.648;23.406;2023-07-20T13:37:45;99491.09;;;32.74;nan